sensor_id;sensor_type;location;lat;lon;timestamp;pressure;altitude;pressure_sealevel;temperature;humidity
38812;BME280;24553;51.640;-0.752;2022-09-01T00:00:44;101520.09;;;13.07;100.00
38812;BME280;24553;51.640;-0.752;2022-09-01T00:03:15;101526.69;;;13.11;100.00
38812;BME280;24553;51.640;-0.752;2022-09-01T00:05:41;101516.88;;;13.12;100.00
38812;BME280;24553;51.640;-0.752;2022-09-01T00:08:06;101519.88;;;13.08;100.00
38812;BME280;24553;51.640;-0.752;2022-09-01T00:10:31;101520.09;;;13.07;100.00
38812;BME280;24553;51.640;-0.752;2022-09-01T00:12:57;101520.09;;;13.07;100.00
38812;BME280;24553;51.640;-0.752;2022-09-01T00:15:22;101511.84;;;13.17;100.00
38812;BME280;24553;51.640;-0.752;2022-09-01T00:17:48;101520.41;;;13.27;100.00
38812;BME280;24553;51.640;-0.752;2022-09-01T00:20:13;101512.50;;;13.34;100.00
38812;BME280;24553;51.640;-0.752;2022-09-01T00:22:39;101505.59;;;13.39;100.00
38812;BME280;24553;51.640;-0.752;2022-09-01T00:25:05;101499.28;;;13.40;100.00
38812;BME280;24553;51.640;-0.752;2022-09-01T00:27:32;101500.84;;;13.35;100.00
38812;BME280;24553;51.640;-0.752;2022-09-01T00:29:59;101497.88;;;13.44;100.00
38812;BME280;24553;51.640;-0.752;2022-09-01T00:32:25;101493.09;;;13.55;100.00
38812;BME280;24553;51.640;-0.752;2022-09-01T00:34:50;101496.41;;;13.57;100.00
38812;BME280;24553;51.640;-0.752;2022-09-01T00:37:16;101498.25;;;13.56;100.00
38812;BME280;24553;51.640;-0.752;2022-09-01T00:39:41;101498.31;;;13.63;100.00
38812;BME280;24553;51.640;-0.752;2022-09-01T00:42:07;101489.72;;;13.61;100.00
38812;BME280;24553;51.640;-0.752;2022-09-01T00:44:33;101489.88;;;13.59;100.00
38812;BME280;24553;51.640;-0.752;2022-09-01T00:47:01;101489.25;;;13.57;100.00
38812;BME280;24553;51.640;-0.752;2022-09-01T00:49:30;101488.16;;;13.51;100.00
38812;BME280;24553;51.640;-0.752;2022-09-01T00:52:30;101488.69;;;13.47;100.00
38812;BME280;24553;51.640;-0.752;2022-09-01T00:55:00;101492.75;;;13.43;100.00
38812;BME280;24553;51.640;-0.752;2022-09-01T00:57:27;101484.41;;;13.46;100.00
38812;BME280;24553;51.640;-0.752;2022-09-01T00:59:57;101485.22;;;13.46;100.00
38812;BME280;24553;51.640;-0.752;2022-09-01T01:02:23;101486.84;;;13.47;100.00
38812;BME280;24553;51.640;-0.752;2022-09-01T01:04:49;101480.16;;;13.51;100.00
38812;BME280;24553;51.640;-0.752;2022-09-01T01:07:18;101480.97;;;13.52;100.00
38812;BME280;24553;51.640;-0.752;2022-09-01T01:09:47;101478.69;;;13.49;100.00
38812;BME280;24553;51.640;-0.752;2022-09-01T01:12:13;101480.97;;;13.52;100.00
38812;BME280;24553;51.640;-0.752;2022-09-01T01:14:43;101480.97;;;13.52;100.00
38812;BME280;24553;51.640;-0.752;2022-09-01T01:17:10;101472.00;;;13.53;100.00
38812;BME280;24553;51.640;-0.752;2022-09-01T01:28:04;101464.56;;;13.48;100.00
38812;BME280;24553;51.640;-0.752;2022-09-01T01:30:31;101465.38;;;13.49;100.00
38812;BME280;24553;51.640;-0.752;2022-09-01T01:32:59;101460.47;;;13.52;100.00
38812;BME280;24553;51.640;-0.752;2022-09-01T01:35:26;101456.81;;;13.53;100.00
38812;BME280;24553;51.640;-0.752;2022-09-01T01:37:51;101460.69;;;13.51;100.00
38812;BME280;24553;51.640;-0.752;2022-09-01T01:40:19;101455.91;;;13.46;100.00
38812;BME280;24553;51.640;-0.752;2022-09-01T01:42:50;101450.75;;;13.45;100.00
38812;BME280;24553;51.640;-0.752;2022-09-01T01:45:18;101444.44;;;13.46;100.00
38812;BME280;24553;51.640;-0.752;2022-09-01T01:47:45;101446.44;;;13.44;100.00
38812;BME280;24553;51.640;-0.752;2022-09-01T01:50:14;101446.84;;;13.41;100.00
38812;BME280;24553;51.640;-0.752;2022-09-01T01:52:40;101447.81;;;13.40;100.00
38812;BME280;24553;51.640;-0.752;2022-09-01T01:55:06;101442.31;;;13.41;100.00
38812;BME280;24553;51.640;-0.752;2022-09-01T01:57:37;101443.97;;;13.42;100.00
38812;BME280;24553;51.640;-0.752;2022-09-01T02:00:04;101440.09;;;13.45;100.00
38812;BME280;24553;51.640;-0.752;2022-09-01T02:02:30;101438.47;;;13.44;100.00
38812;BME280;24553;51.640;-0.752;2022-09-01T02:04:55;101443.63;;;13.45;100.00
38812;BME280;24553;51.640;-0.752;2022-09-01T02:07:21;101438.09;;;13.47;100.00
38812;BME280;24553;51.640;-0.752;2022-09-01T02:09:47;101441.13;;;13.44;100.00
38812;BME280;24553;51.640;-0.752;2022-09-01T02:12:12;101440.47;;;13.42;100.00
38812;BME280;24553;51.640;-0.752;2022-09-01T02:14:38;101439.00;;;13.39;100.00
38812;BME280;24553;51.640;-0.752;2022-09-01T02:17:03;101445.09;;;13.33;100.00
38812;BME280;24553;51.640;-0.752;2022-09-01T02:19:32;101444.72;;;13.36;100.00
38812;BME280;24553;51.640;-0.752;2022-09-01T02:22:00;101438.84;;;13.41;100.00
38812;BME280;24553;51.640;-0.752;2022-09-01T02:24:26;101443.53;;;13.39;100.00
38812;BME280;24553;51.640;-0.752;2022-09-01T02:26:55;101436.94;;;13.35;100.00
38812;BME280;24553;51.640;-0.752;2022-09-01T02:29:22;101436.47;;;13.31;100.00
38812;BME280;24553;51.640;-0.752;2022-09-01T02:31:51;101435.63;;;13.30;100.00
38812;BME280;24553;51.640;-0.752;2022-09-01T02:34:18;101428.28;;;13.33;100.00
38812;BME280;24553;51.640;-0.752;2022-09-01T02:36:47;101421.94;;;13.34;100.00
38812;BME280;24553;51.640;-0.752;2022-09-01T02:39:18;101436.56;;;13.38;100.00
38812;BME280;24553;51.640;-0.752;2022-09-01T02:41:45;101427.53;;;13.39;100.00
38812;BME280;24553;51.640;-0.752;2022-09-01T02:44:10;101423.41;;;13.36;100.00
38812;BME280;24553;51.640;-0.752;2022-09-01T02:46:43;101436.56;;;13.38;100.00
38812;BME280;24553;51.640;-0.752;2022-09-01T02:49:11;101428.34;;;13.39;100.00
38812;BME280;24553;51.640;-0.752;2022-09-01T02:51:44;101430.28;;;13.45;100.00
38812;BME280;24553;51.640;-0.752;2022-09-01T02:54:11;101425.13;;;13.44;100.00
38812;BME280;24553;51.640;-0.752;2022-09-01T02:56:40;101425.97;;;13.44;100.00
38812;BME280;24553;51.640;-0.752;2022-09-01T02:59:06;101418.78;;;13.45;100.00
38812;BME280;24553;51.640;-0.752;2022-09-01T03:01:37;101424.97;;;13.45;100.00
38812;BME280;24553;51.640;-0.752;2022-09-01T03:04:04;101419.63;;;13.45;100.00
38812;BME280;24553;51.640;-0.752;2022-09-01T03:06:32;101415.78;;;13.48;100.00
38812;BME280;24553;51.640;-0.752;2022-09-01T03:08:59;101418.22;;;13.49;100.00
38812;BME280;24553;51.640;-0.752;2022-09-01T03:11:25;101421.94;;;13.48;100.00
38812;BME280;24553;51.640;-0.752;2022-09-01T03:13:52;101408.34;;;13.43;100.00
38812;BME280;24553;51.640;-0.752;2022-09-01T03:16:18;101409.53;;;13.41;100.00
38812;BME280;24553;51.640;-0.752;2022-09-01T03:18:43;101407.44;;;13.36;100.00
38812;BME280;24553;51.640;-0.752;2022-09-01T03:21:09;101407.63;;;13.35;100.00
38812;BME280;24553;51.640;-0.752;2022-09-01T03:23:42;101401.84;;;13.31;100.00
38812;BME280;24553;51.640;-0.752;2022-09-01T03:26:07;101397.91;;;13.27;100.00
38812;BME280;24553;51.640;-0.752;2022-09-01T03:28:33;101398.44;;;13.22;100.00
38812;BME280;24553;51.640;-0.752;2022-09-01T03:30:58;101397.13;;;13.18;100.00
38812;BME280;24553;51.640;-0.752;2022-09-01T03:33:25;101397.34;;;13.17;100.00
38812;BME280;24553;51.640;-0.752;2022-09-01T03:35:52;101397.50;;;13.15;100.00
38812;BME280;24553;51.640;-0.752;2022-09-01T03:38:17;101387.41;;;13.10;100.00
38812;BME280;24553;51.640;-0.752;2022-09-01T03:40:51;101391.09;;;13.09;100.00
38812;BME280;24553;51.640;-0.752;2022-09-01T03:43:17;101392.28;;;13.07;100.00
38812;BME280;24553;51.640;-0.752;2022-09-01T03:45:44;101387.34;;;13.04;100.00
38812;BME280;24553;51.640;-0.752;2022-09-01T03:48:10;101390.34;;;13.01;100.00
38812;BME280;24553;51.640;-0.752;2022-09-01T03:50:39;101388.06;;;12.98;100.00
38812;BME280;24553;51.640;-0.752;2022-09-01T03:53:10;101392.13;;;12.94;100.00
38812;BME280;24553;51.640;-0.752;2022-09-01T03:55:36;101385.88;;;12.86;100.00
38812;BME280;24553;51.640;-0.752;2022-09-01T03:58:08;101385.50;;;12.90;100.00
38812;BME280;24553;51.640;-0.752;2022-09-01T04:00:37;101387.16;;;12.91;100.00
38812;BME280;24553;51.640;-0.752;2022-09-01T04:03:05;101384.69;;;12.89;100.00
38812;BME280;24553;51.640;-0.752;2022-09-01T04:05:33;101384.69;;;12.89;100.00
38812;BME280;24553;51.640;-0.752;2022-09-01T04:08:02;101385.69;;;12.88;100.00
38812;BME280;24553;51.640;-0.752;2022-09-01T04:10:29;101382.19;;;12.87;100.00
38812;BME280;24553;51.640;-0.752;2022-09-01T04:12:57;101377.88;;;12.86;100.00
38812;BME280;24553;51.640;-0.752;2022-09-01T04:15:24;101381.75;;;12.84;100.00
38812;BME280;24553;51.640;-0.752;2022-09-01T04:17:50;101377.25;;;12.84;100.00
38812;BME280;24553;51.640;-0.752;2022-09-01T04:20:39;101374.84;;;12.90;100.00
38812;BME280;24553;51.640;-0.752;2022-09-01T04:23:33;101374.47;;;12.93;100.00
38812;BME280;24553;51.640;-0.752;2022-09-01T04:26:08;101372.56;;;13.01;100.00
38812;BME280;24553;51.640;-0.752;2022-09-01T04:28:37;101364.00;;;13.06;100.00
38812;BME280;24553;51.640;-0.752;2022-09-01T04:31:05;101357.47;;;13.08;100.00
38812;BME280;24553;51.640;-0.752;2022-09-01T04:33:32;101361.44;;;13.13;100.00
38812;BME280;24553;51.640;-0.752;2022-09-01T04:36:23;101364.75;;;13.15;100.00
38812;BME280;24553;51.640;-0.752;2022-09-01T04:38:58;101366.00;;;13.19;100.00
38812;BME280;24553;51.640;-0.752;2022-09-01T04:41:26;101364.63;;;13.23;100.00
38812;BME280;24553;51.640;-0.752;2022-09-01T04:43:55;101362.09;;;13.29;100.00
38812;BME280;24553;51.640;-0.752;2022-09-01T04:46:22;101355.56;;;13.32;100.00
38812;BME280;24553;51.640;-0.752;2022-09-01T04:48:51;101361.50;;;13.34;100.00
38812;BME280;24553;51.640;-0.752;2022-09-01T04:51:16;101354.97;;;13.37;100.00
38812;BME280;24553;51.640;-0.752;2022-09-01T04:53:42;101360.13;;;13.38;100.00
38812;BME280;24553;51.640;-0.752;2022-09-01T04:56:14;101351.94;;;13.40;100.00
38812;BME280;24553;51.640;-0.752;2022-09-01T04:58:44;101357.25;;;13.40;100.00
38812;BME280;24553;51.640;-0.752;2022-09-01T05:01:16;101358.72;;;13.42;100.00
38812;BME280;24553;51.640;-0.752;2022-09-01T05:03:42;101362.28;;;13.49;100.00
38812;BME280;24553;51.640;-0.752;2022-09-01T05:06:18;101356.41;;;13.54;100.00
38812;BME280;24553;51.640;-0.752;2022-09-01T05:08:44;101347.63;;;13.60;100.00
38812;BME280;24553;51.640;-0.752;2022-09-01T05:11:11;101355.28;;;13.63;100.00
38812;BME280;24553;51.640;-0.752;2022-09-01T05:13:37;101354.50;;;13.69;100.00
38812;BME280;24553;51.640;-0.752;2022-09-01T05:16:09;101359.44;;;13.72;100.00
38812;BME280;24553;51.640;-0.752;2022-09-01T05:18:38;101354.59;;;13.76;100.00
38812;BME280;24553;51.640;-0.752;2022-09-01T05:21:06;101351.72;;;13.78;100.00
38812;BME280;24553;51.640;-0.752;2022-09-01T05:23:37;101354.63;;;13.83;100.00
38812;BME280;24553;51.640;-0.752;2022-09-01T05:26:05;101347.69;;;13.88;100.00
38812;BME280;24553;51.640;-0.752;2022-09-01T05:28:41;101347.34;;;13.91;100.00
38812;BME280;24553;51.640;-0.752;2022-09-01T05:31:08;101350.44;;;13.95;100.00
38812;BME280;24553;51.640;-0.752;2022-09-01T05:33:34;101340.41;;;13.97;100.00
38812;BME280;24553;51.640;-0.752;2022-09-01T05:36:01;101353.16;;;14.02;100.00
38812;BME280;24553;51.640;-0.752;2022-09-01T05:38:28;101338.03;;;14.09;100.00
38812;BME280;24553;51.640;-0.752;2022-09-01T05:40:57;101338.09;;;14.15;100.00
38812;BME280;24553;51.640;-0.752;2022-09-01T05:43:23;101330.91;;;14.16;100.00
38812;BME280;24553;51.640;-0.752;2022-09-01T05:45:52;101333.75;;;14.14;100.00
38812;BME280;24553;51.640;-0.752;2022-09-01T05:48:18;101327.44;;;14.15;100.00
38812;BME280;24553;51.640;-0.752;2022-09-01T05:50:44;101333.56;;;14.16;100.00
38812;BME280;24553;51.640;-0.752;2022-09-01T05:53:11;101331.94;;;14.15;100.00
38812;BME280;24553;51.640;-0.752;2022-09-01T05:55:46;101328.66;;;14.19;100.00
38812;BME280;24553;51.640;-0.752;2022-09-01T05:58:14;101339.78;;;14.23;100.00
38812;BME280;24553;51.640;-0.752;2022-09-01T06:00:42;101327.91;;;14.26;100.00
38812;BME280;24553;51.640;-0.752;2022-09-01T06:03:09;101332.22;;;14.27;100.00
38812;BME280;24553;51.640;-0.752;2022-09-01T06:05:35;101340.03;;;14.28;100.00
38812;BME280;24553;51.640;-0.752;2022-09-01T06:08:03;101336.56;;;14.28;100.00
38812;BME280;24553;51.640;-0.752;2022-09-01T06:10:30;101337.16;;;14.30;100.00
38812;BME280;24553;51.640;-0.752;2022-09-01T06:12:56;101334.47;;;14.30;100.00
38812;BME280;24553;51.640;-0.752;2022-09-01T06:15:25;101330.00;;;14.30;100.00
38812;BME280;24553;51.640;-0.752;2022-09-01T06:17:53;101325.09;;;14.34;100.00
38812;BME280;24553;51.640;-0.752;2022-09-01T06:20:19;101328.56;;;14.34;100.00
38812;BME280;24553;51.640;-0.752;2022-09-01T06:22:47;101325.72;;;14.36;100.00
38812;BME280;24553;51.640;-0.752;2022-09-01T06:25:13;101328.81;;;14.39;100.00
38812;BME280;24553;51.640;-0.752;2022-09-01T06:27:41;101322.25;;;14.42;100.00
38812;BME280;24553;51.640;-0.752;2022-09-01T06:30:09;101324.34;;;14.47;100.00
38812;BME280;24553;51.640;-0.752;2022-09-01T06:32:40;101329.28;;;14.50;100.00
38812;BME280;24553;51.640;-0.752;2022-09-01T06:35:08;101316.44;;;14.53;100.00
38812;BME280;24553;51.640;-0.752;2022-09-01T06:37:38;101323.00;;;14.57;100.00
38812;BME280;24553;51.640;-0.752;2022-09-01T06:40:04;101321.78;;;14.60;100.00
38812;BME280;24553;51.640;-0.752;2022-09-01T06:42:30;101317.91;;;14.63;100.00
38812;BME280;24553;51.640;-0.752;2022-09-01T06:45:00;101323.47;;;14.68;100.00
38812;BME280;24553;51.640;-0.752;2022-09-01T06:47:25;101323.50;;;14.74;100.00
38812;BME280;24553;51.640;-0.752;2022-09-01T06:49:53;101330.53;;;14.82;100.00
38812;BME280;24553;51.640;-0.752;2022-09-01T06:52:19;101328.09;;;14.87;100.00
38812;BME280;24553;51.640;-0.752;2022-09-01T06:54:47;101325.66;;;14.92;100.00
38812;BME280;24553;51.640;-0.752;2022-09-01T06:57:15;101323.81;;;14.93;100.00
38812;BME280;24553;51.640;-0.752;2022-09-01T06:59:40;101332.44;;;14.95;100.00
38812;BME280;24553;51.640;-0.752;2022-09-01T07:02:06;101323.59;;;14.94;100.00
38812;BME280;24553;51.640;-0.752;2022-09-01T07:04:33;101325.25;;;14.95;100.00
38812;BME280;24553;51.640;-0.752;2022-09-01T07:06:58;101330.19;;;14.98;100.00
38812;BME280;24553;51.640;-0.752;2022-09-01T07:09:24;101336.16;;;15.00;100.00
38812;BME280;24553;51.640;-0.752;2022-09-01T07:11:51;101329.19;;;15.06;100.00
38812;BME280;24553;51.640;-0.752;2022-09-01T07:14:17;101334.94;;;15.10;100.00
38812;BME280;24553;51.640;-0.752;2022-09-01T07:16:43;101329.22;;;15.19;100.00
38812;BME280;24553;51.640;-0.752;2022-09-01T07:19:11;101325.97;;;15.24;100.00
38812;BME280;24553;51.640;-0.752;2022-09-01T07:21:40;101332.34;;;15.30;100.00
38812;BME280;24553;51.640;-0.752;2022-09-01T07:24:07;101321.88;;;15.35;100.00
38812;BME280;24553;51.640;-0.752;2022-09-01T07:26:33;101324.56;;;15.41;100.00
38812;BME280;24553;51.640;-0.752;2022-09-01T07:29:00;101322.72;;;15.48;100.00
38812;BME280;24553;51.640;-0.752;2022-09-01T07:31:33;101321.09;;;15.54;100.00
38812;BME280;24553;51.640;-0.752;2022-09-01T07:34:02;101320.47;;;15.59;100.00
38812;BME280;24553;51.640;-0.752;2022-09-01T07:36:29;101317.81;;;15.65;100.00
38812;BME280;24553;51.640;-0.752;2022-09-01T07:38:56;101323.63;;;15.76;100.00
38812;BME280;24553;51.640;-0.752;2022-09-01T07:41:23;101324.22;;;15.84;100.00
38812;BME280;24553;51.640;-0.752;2022-09-01T07:43:51;101319.91;;;15.90;100.00
38812;BME280;24553;51.640;-0.752;2022-09-01T07:46:20;101319.50;;;16.06;100.00
38812;BME280;24553;51.640;-0.752;2022-09-01T07:48:48;101313.53;;;16.18;100.00
38812;BME280;24553;51.640;-0.752;2022-09-01T07:51:17;101302.19;;;16.22;100.00
38812;BME280;24553;51.640;-0.752;2022-09-01T07:53:45;101309.19;;;16.23;100.00
38812;BME280;24553;51.640;-0.752;2022-09-01T07:56:14;101322.34;;;16.31;100.00
38812;BME280;24553;51.640;-0.752;2022-09-01T07:58:40;101319.44;;;16.46;100.00
38812;BME280;24553;51.640;-0.752;2022-09-01T08:01:11;101320.25;;;16.53;100.00
38812;BME280;24553;51.640;-0.752;2022-09-01T08:03:39;101313.66;;;16.63;100.00
38812;BME280;24553;51.640;-0.752;2022-09-01T08:06:07;101319.59;;;16.71;100.00
38812;BME280;24553;51.640;-0.752;2022-09-01T08:08:34;101305.16;;;16.79;100.00
38812;BME280;24553;51.640;-0.752;2022-09-01T08:11:00;101311.31;;;16.86;100.00
38812;BME280;24553;51.640;-0.752;2022-09-01T08:13:26;101317.50;;;16.87;100.00
38812;BME280;24553;51.640;-0.752;2022-09-01T08:15:51;101306.97;;;16.92;100.00
38812;BME280;24553;51.640;-0.752;2022-09-01T08:18:17;101310.66;;;16.97;100.00
38812;BME280;24553;51.640;-0.752;2022-09-01T08:20:43;101312.47;;;17.04;100.00
38812;BME280;24553;51.640;-0.752;2022-09-01T08:23:11;101312.19;;;17.18;100.00
38812;BME280;24553;51.640;-0.752;2022-09-01T08:25:38;101311.34;;;17.25;100.00
38812;BME280;24553;51.640;-0.752;2022-09-01T08:28:04;101308.25;;;17.28;100.00
38812;BME280;24553;51.640;-0.752;2022-09-01T08:30:31;101311.72;;;17.28;100.00
38812;BME280;24553;51.640;-0.752;2022-09-01T08:32:57;101307.00;;;17.23;100.00
38812;BME280;24553;51.640;-0.752;2022-09-01T08:35:22;101309.69;;;17.23;100.00
38812;BME280;24553;51.640;-0.752;2022-09-01T08:37:48;101302.69;;;17.22;100.00
38812;BME280;24553;51.640;-0.752;2022-09-01T08:40:16;101310.28;;;17.32;100.00
38812;BME280;24553;51.640;-0.752;2022-09-01T08:43:01;101297.59;;;17.46;100.00
38812;BME280;24553;51.640;-0.752;2022-09-01T08:45:37;101295.25;;;17.56;100.00
38812;BME280;24553;51.640;-0.752;2022-09-01T08:50:42;101298.97;;;17.87;100.00
38812;BME280;24553;51.640;-0.752;2022-09-01T08:53:22;101304.75;;;18.09;100.00
38812;BME280;24553;51.640;-0.752;2022-09-01T08:55:55;101296.81;;;18.39;100.00
38812;BME280;24553;51.640;-0.752;2022-09-01T08:58:21;101288.84;;;18.69;100.00
38812;BME280;24553;51.640;-0.752;2022-09-01T09:00:54;101275.63;;;18.86;100.00
38812;BME280;24553;51.640;-0.752;2022-09-01T09:03:44;101291.84;;;18.80;100.00
38812;BME280;24553;51.640;-0.752;2022-09-01T09:06:32;101288.31;;;18.79;100.00
38812;BME280;24553;51.640;-0.752;2022-09-01T09:09:03;101288.72;;;18.83;100.00
38812;BME280;24553;51.640;-0.752;2022-09-01T09:11:53;101289.53;;;18.83;100.00
38812;BME280;24553;51.640;-0.752;2022-09-01T09:17:08;101285.88;;;18.59;100.00
38812;BME280;24553;51.640;-0.752;2022-09-01T09:19:39;101281.22;;;18.66;100.00
38812;BME280;24553;51.640;-0.752;2022-09-01T09:22:08;101277.41;;;18.74;100.00
38812;BME280;24553;51.640;-0.752;2022-09-01T09:29:54;101280.53;;;18.89;100.00
38812;BME280;24553;51.640;-0.752;2022-09-01T09:32:23;101278.13;;;19.00;100.00
38812;BME280;24553;51.640;-0.752;2022-09-01T09:34:49;101264.91;;;19.28;100.00
38812;BME280;24553;51.640;-0.752;2022-09-01T09:37:26;101265.13;;;19.57;100.00
38812;BME280;24553;51.640;-0.752;2022-09-01T09:40:20;101263.00;;;19.59;100.00
38812;BME280;24553;51.640;-0.752;2022-09-01T09:48:04;101250.16;;;20.20;100.00
38812;BME280;24553;51.640;-0.752;2022-09-01T09:50:38;101249.34;;;20.19;100.00
38812;BME280;24553;51.640;-0.752;2022-09-01T09:56:18;101239.25;;;20.38;100.00
38812;BME280;24553;51.640;-0.752;2022-09-01T09:58:46;101242.75;;;20.39;100.00
38812;BME280;24553;51.640;-0.752;2022-09-01T10:03:56;101236.28;;;20.63;100.00
38812;BME280;24553;51.640;-0.752;2022-09-01T10:09:07;101238.00;;;20.98;100.00
38812;BME280;24553;51.640;-0.752;2022-09-01T10:11:39;101235.88;;;21.00;100.00
38812;BME280;24553;51.640;-0.752;2022-09-01T10:14:15;101226.19;;;20.99;100.00
38812;BME280;24553;51.640;-0.752;2022-09-01T10:16:42;101224.63;;;21.03;100.00
38812;BME280;24553;51.640;-0.752;2022-09-01T10:19:12;101219.91;;;21.10;100.00
38812;BME280;24553;51.640;-0.752;2022-09-01T10:21:43;101228.25;;;21.26;100.00
38812;BME280;24553;51.640;-0.752;2022-09-01T10:24:32;101214.13;;;21.35;100.00
38812;BME280;24553;51.640;-0.752;2022-09-01T10:27:02;101217.91;;;21.51;100.00
38812;BME280;24553;51.640;-0.752;2022-09-01T10:29:36;101206.84;;;21.70;100.00
38812;BME280;24553;51.640;-0.752;2022-09-01T10:32:07;101205.38;;;21.79;100.00
38812;BME280;24553;51.640;-0.752;2022-09-01T10:34:35;101205.22;;;21.69;100.00
38812;BME280;24553;51.640;-0.752;2022-09-01T10:37:02;101194.28;;;21.59;100.00
38812;BME280;24553;51.640;-0.752;2022-09-01T10:39:28;101203.06;;;21.71;100.00
38812;BME280;24553;51.640;-0.752;2022-09-01T10:41:55;101204.97;;;21.70;100.00
38812;BME280;24553;51.640;-0.752;2022-09-01T10:44:55;101198.59;;;21.60;100.00
38812;BME280;24553;51.640;-0.752;2022-09-01T10:47:33;101193.69;;;21.40;100.00
38812;BME280;24553;51.640;-0.752;2022-09-01T10:50:31;101196.41;;;21.40;100.00
38812;BME280;24553;51.640;-0.752;2022-09-01T10:53:05;101201.13;;;21.49;100.00
38812;BME280;24553;51.640;-0.752;2022-09-01T10:55:34;101196.81;;;21.48;100.00
38812;BME280;24553;51.640;-0.752;2022-09-01T10:58:20;101195.16;;;21.30;100.00
38812;BME280;24553;51.640;-0.752;2022-09-01T11:00:51;101187.88;;;21.31;100.00
38812;BME280;24553;51.640;-0.752;2022-09-01T11:08:22;101193.28;;;21.31;100.00
38812;BME280;24553;51.640;-0.752;2022-09-01T11:10:55;101188.28;;;21.23;100.00
38812;BME280;24553;51.640;-0.752;2022-09-01T11:13:35;101187.47;;;21.22;100.00
38812;BME280;24553;51.640;-0.752;2022-09-01T11:18:48;101191.13;;;21.16;100.00
38812;BME280;24553;51.640;-0.752;2022-09-01T11:21:18;101194.06;;;20.98;100.00
38812;BME280;24553;51.640;-0.752;2022-09-01T11:23:47;101194.22;;;20.91;100.00
38812;BME280;24553;51.640;-0.752;2022-09-01T11:26:48;101196.34;;;21.06;100.00
38812;BME280;24553;51.640;-0.752;2022-09-01T11:29:51;101196.22;;;21.12;100.00
38812;BME280;24553;51.640;-0.752;2022-09-01T11:32:18;101196.03;;;21.19;100.00
38812;BME280;24553;51.640;-0.752;2022-09-01T11:34:47;101185.50;;;21.18;100.00
38812;BME280;24553;51.640;-0.752;2022-09-01T11:37:15;101182.63;;;21.24;100.00
38812;BME280;24553;51.640;-0.752;2022-09-01T11:39:48;101194.72;;;21.22;100.00
38812;BME280;24553;51.640;-0.752;2022-09-01T11:42:19;101191.31;;;21.09;100.00
38812;BME280;24553;51.640;-0.752;2022-09-01T11:47:20;101183.44;;;20.91;100.00
38812;BME280;24553;51.640;-0.752;2022-09-01T11:49:58;101177.78;;;20.92;100.00
38812;BME280;24553;51.640;-0.752;2022-09-01T11:52:26;101171.72;;;20.85;100.00
38812;BME280;24553;51.640;-0.752;2022-09-01T11:54:54;101169.88;;;20.86;100.00
38812;BME280;24553;51.640;-0.752;2022-09-01T11:57:21;101175.59;;;20.89;100.00
38812;BME280;24553;51.640;-0.752;2022-09-01T11:59:47;101168.81;;;20.87;100.00
38812;BME280;24553;51.640;-0.752;2022-09-01T12:02:46;101170.16;;;20.73;100.00
38812;BME280;24553;51.640;-0.752;2022-09-01T12:05:29;101165.75;;;20.66;100.00
38812;BME280;24553;51.640;-0.752;2022-09-01T12:07:56;101167.38;;;20.67;100.00
38812;BME280;24553;51.640;-0.752;2022-09-01T12:10:34;101174.91;;;20.65;100.00
38812;BME280;24553;51.640;-0.752;2022-09-01T12:13:15;101181.22;;;20.59;100.00
38812;BME280;24553;51.640;-0.752;2022-09-01T12:15:41;101171.88;;;20.50;100.00
38812;BME280;24553;51.640;-0.752;2022-09-01T12:18:16;101173.53;;;20.39;100.00
38812;BME280;24553;51.640;-0.752;2022-09-01T12:20:44;101171.53;;;20.06;100.00
38812;BME280;24553;51.640;-0.752;2022-09-01T12:23:37;101178.81;;;19.94;100.00
38812;BME280;24553;51.640;-0.752;2022-09-01T12:26:19;101166.75;;;19.85;100.00
38812;BME280;24553;51.640;-0.752;2022-09-01T12:28:46;101172.13;;;19.85;100.00
38812;BME280;24553;51.640;-0.752;2022-09-01T12:31:17;101165.72;;;19.86;100.00
38812;BME280;24553;51.640;-0.752;2022-09-01T12:33:44;101168.63;;;19.84;100.00
38812;BME280;24553;51.640;-0.752;2022-09-01T12:36:23;101160.78;;;19.82;100.00
38812;BME280;24553;51.640;-0.752;2022-09-01T12:38:51;101159.28;;;19.98;100.00
38812;BME280;24553;51.640;-0.752;2022-09-01T12:43:56;101145.97;;;20.61;100.00
38812;BME280;24553;51.640;-0.752;2022-09-01T12:46:43;101150.84;;;20.92;100.00
38812;BME280;24553;51.640;-0.752;2022-09-01T12:49:22;101140.00;;;21.04;100.00
38812;BME280;24553;51.640;-0.752;2022-09-01T12:52:04;101142.38;;;21.18;100.00
38812;BME280;24553;51.640;-0.752;2022-09-01T12:54:29;101141.94;;;21.26;100.00
38812;BME280;24553;51.640;-0.752;2022-09-01T12:56:55;101138.69;;;21.41;100.00
38812;BME280;24553;51.640;-0.752;2022-09-01T12:59:23;101136.47;;;21.54;100.00
38812;BME280;24553;51.640;-0.752;2022-09-01T13:01:49;101132.97;;;21.76;100.00
38812;BME280;24553;51.640;-0.752;2022-09-01T13:04:24;101133.69;;;21.88;100.00
38812;BME280;24553;51.640;-0.752;2022-09-01T13:06:52;101132.56;;;21.84;100.00
38812;BME280;24553;51.640;-0.752;2022-09-01T13:09:18;101132.81;;;21.83;100.00
38812;BME280;24553;51.640;-0.752;2022-09-01T13:11:44;101131.09;;;21.98;100.00
38812;BME280;24553;51.640;-0.752;2022-09-01T13:14:12;101129.63;;;22.08;100.00
38812;BME280;24553;51.640;-0.752;2022-09-01T13:16:37;101130.06;;;21.99;100.00
38812;BME280;24553;51.640;-0.752;2022-09-01T13:19:03;101130.59;;;22.02;100.00
38812;BME280;24553;51.640;-0.752;2022-09-01T13:21:30;101123.06;;;22.04;100.00
38812;BME280;24553;51.640;-0.752;2022-09-01T13:23:55;101114.34;;;21.96;100.00
38812;BME280;24553;51.640;-0.752;2022-09-01T13:26:21;101118.50;;;21.82;100.00
38812;BME280;24553;51.640;-0.752;2022-09-01T13:28:48;101117.28;;;21.73;100.00